sensor_id;sensor_type;location;lat;lon;timestamp;pressure;altitude;pressure_sealevel;temperature;humidity
84134;BME280;74235;48.688;9.708;2023-12-28T00:02:25;97714.28;;;21.72;40.59
84134;BME280;74235;48.688;9.708;2023-12-28T00:04:52;97713.47;;;21.72;40.90
84134;BME280;74235;48.688;9.708;2023-12-28T00:07:20;97735.91;;;21.72;40.81
84134;BME280;74235;48.688;9.708;2023-12-28T00:09:47;97720.78;;;21.71;40.66
84134;BME280;74235;48.688;9.708;2023-12-28T00:12:15;97730.50;;;21.72;39.71
84134;BME280;74235;48.688;9.708;2023-12-28T00:14:43;97729.69;;;21.72;39.78
84134;BME280;74235;48.688;9.708;2023-12-28T00:17:11;97743.19;;;21.72;41.20
84134;BME280;74235;48.688;9.708;2023-12-28T00:19:39;97732.66;;;21.70;39.79
84134;BME280;74235;48.688;9.708;2023-12-28T00:22:06;97722.63;;;21.71;40.75
84134;BME280;74235;48.688;9.708;2023-12-28T00:24:34;97724.84;;;21.69;39.93
84134;BME280;74235;48.688;9.708;2023-12-28T00:27:02;97718.63;;;21.68;41.03
84134;BME280;74235;48.688;9.708;2023-12-28T00:29:30;97736.16;;;21.71;39.68
84134;BME280;74235;48.688;9.708;2023-12-28T00:31:57;97723.75;;;21.70;41.17
84134;BME280;74235;48.688;9.708;2023-12-28T00:34:26;97741.06;;;21.69;40.29
84134;BME280;74235;48.688;9.708;2023-12-28T00:36:54;97744.25;;;21.71;40.06
84134;BME280;74235;48.688;9.708;2023-12-28T00:39:22;97739.13;;;21.69;40.72
84134;BME280;74235;48.688;9.708;2023-12-28T00:41:50;97757.28;;;21.69;40.22
84134;BME280;74235;48.688;9.708;2023-12-28T00:44:17;97757.28;;;21.69;39.28
84134;BME280;74235;48.688;9.708;2023-12-28T00:46:45;97744.81;;;21.68;40.17
84134;BME280;74235;48.688;9.708;2023-12-28T00:49:12;97734.00;;;21.68;39.37
84134;BME280;74235;48.688;9.708;2023-12-28T00:51:41;97729.44;;;21.68;40.26
84134;BME280;74235;48.688;9.708;2023-12-28T00:54:09;97723.19;;;21.68;39.51
84134;BME280;74235;48.688;9.708;2023-12-28T00:56:36;97727.00;;;21.67;40.85
84134;BME280;74235;48.688;9.708;2023-12-28T00:59:04;97738.63;;;21.67;40.29
84134;BME280;74235;48.688;9.708;2023-12-28T01:01:31;97736.72;;;21.68;40.04
84134;BME280;74235;48.688;9.708;2023-12-28T01:03:59;97726.19;;;21.66;39.16
84134;BME280;74235;48.688;9.708;2023-12-28T01:06:27;97734.28;;;21.66;40.53
84134;BME280;74235;48.688;9.708;2023-12-28T01:08:57;97740.53;;;21.67;40.33
84134;BME280;74235;48.688;9.708;2023-12-28T01:11:25;97745.13;;;21.66;39.60
84134;BME280;74235;48.688;9.708;2023-12-28T01:13:53;97749.44;;;21.67;40.06
84134;BME280;74235;48.688;9.708;2023-12-28T01:16:20;97746.22;;;21.65;41.01
84134;BME280;74235;48.688;9.708;2023-12-28T01:18:48;97742.41;;;21.66;39.27
84134;BME280;74235;48.688;9.708;2023-12-28T01:21:16;97742.41;;;21.66;41.02
84134;BME280;74235;48.688;9.708;2023-12-28T01:23:44;97740.81;;;21.65;39.40
84134;BME280;74235;48.688;9.708;2023-12-28T01:26:14;97747.81;;;21.66;40.68
84134;BME280;74235;48.688;9.708;2023-12-28T01:28:41;97747.81;;;21.66;39.92
84134;BME280;74235;48.688;9.708;2023-12-28T01:31:09;97740.03;;;21.65;40.85
84134;BME280;74235;48.688;9.708;2023-12-28T01:33:37;97747.81;;;21.66;40.74
84134;BME280;74235;48.688;9.708;2023-12-28T01:36:16;97742.72;;;21.65;39.39
84134;BME280;74235;48.688;9.708;2023-12-28T01:38:43;97745.44;;;21.65;39.78
84134;BME280;74235;48.688;9.708;2023-12-28T01:41:11;97751.63;;;21.65;40.10
84134;BME280;74235;48.688;9.708;2023-12-28T01:43:41;97746.22;;;21.65;40.34
84134;BME280;74235;48.688;9.708;2023-12-28T01:46:12;97745.44;;;21.65;40.93
84134;BME280;74235;48.688;9.708;2023-12-28T01:48:43;97750.84;;;21.65;38.97
84134;BME280;74235;48.688;9.708;2023-12-28T01:51:13;97748.13;;;21.65;40.24
84134;BME280;74235;48.688;9.708;2023-12-28T01:53:42;97749.19;;;21.64;40.53
84134;BME280;74235;48.688;9.708;2023-12-28T01:56:10;97751.91;;;21.64;40.00
84134;BME280;74235;48.688;9.708;2023-12-28T01:58:41;97756.25;;;21.65;39.39
84134;BME280;74235;48.688;9.708;2023-12-28T02:01:12;97774.63;;;21.63;40.39
84134;BME280;74235;48.688;9.708;2023-12-28T02:03:41;97762.72;;;21.64;39.30
84134;BME280;74235;48.688;9.708;2023-12-28T02:06:08;97768.13;;;21.64;39.60
84134;BME280;74235;48.688;9.708;2023-12-28T02:08:36;97775.44;;;21.63;39.18
84134;BME280;74235;48.688;9.708;2023-12-28T02:11:04;97776.22;;;21.64;39.93
84134;BME280;74235;48.688;9.708;2023-12-28T02:13:32;97770.31;;;21.62;39.44
84134;BME280;74235;48.688;9.708;2023-12-28T02:16:02;97785.44;;;21.63;39.72
84134;BME280;74235;48.688;9.708;2023-12-28T02:18:36;97780.84;;;21.63;40.17
84134;BME280;74235;48.688;9.708;2023-12-28T02:21:06;97790.03;;;21.62;40.90
84134;BME280;74235;48.688;9.708;2023-12-28T02:23:34;97781.63;;;21.64;40.16
84134;BME280;74235;48.688;9.708;2023-12-28T02:26:05;97786.25;;;21.63;39.98
84134;BME280;74235;48.688;9.708;2023-12-28T02:28:32;97797.06;;;21.63;40.25
84134;BME280;74235;48.688;9.708;2023-12-28T02:31:01;97788.13;;;21.63;39.24
84134;BME280;74235;48.688;9.708;2023-12-28T02:33:38;97795.44;;;21.62;39.86
84134;BME280;74235;48.688;9.708;2023-12-28T02:36:11;97807.88;;;21.63;40.23
84134;BME280;74235;48.688;9.708;2023-12-28T02:38:41;97803.25;;;21.64;39.54
84134;BME280;74235;48.688;9.708;2023-12-28T02:41:11;97806.25;;;21.62;40.32
84134;BME280;74235;48.688;9.708;2023-12-28T02:43:39;97790.03;;;21.62;40.38
84134;BME280;74235;48.688;9.708;2023-12-28T02:46:07;97800.84;;;21.62;40.37
84134;BME280;74235;48.688;9.708;2023-12-28T02:48:34;97802.75;;;21.62;39.20
84134;BME280;74235;48.688;9.708;2023-12-28T02:51:02;97813.56;;;21.62;39.14
84134;BME280;74235;48.688;9.708;2023-12-28T02:53:30;97808.44;;;21.60;40.28
84134;BME280;74235;48.688;9.708;2023-12-28T02:55:58;97809.25;;;21.61;39.38
84134;BME280;74235;48.688;9.708;2023-12-28T02:58:27;97809.25;;;21.61;39.54
84134;BME280;74235;48.688;9.708;2023-12-28T03:00:54;97813.56;;;21.62;40.27
84134;BME280;74235;48.688;9.708;2023-12-28T03:03:22;97803.84;;;21.61;40.13
84134;BME280;74235;48.688;9.708;2023-12-28T03:05:50;97809.25;;;21.61;40.64
84134;BME280;74235;48.688;9.708;2023-12-28T03:08:17;97798.44;;;21.61;39.97
84134;BME280;74235;48.688;9.708;2023-12-28T03:10:45;97802.22;;;21.60;40.12
84134;BME280;74235;48.688;9.708;2023-12-28T03:13:12;97801.16;;;21.61;39.02
84134;BME280;74235;48.688;9.708;2023-12-28T03:15:41;97796.81;;;21.60;40.77
84134;BME280;74235;48.688;9.708;2023-12-28T03:18:09;97791.41;;;21.60;38.88
84134;BME280;74235;48.688;9.708;2023-12-28T03:20:36;97799.22;;;21.61;40.52
84134;BME280;74235;48.688;9.708;2023-12-28T03:23:06;97793.03;;;21.61;39.67
84134;BME280;74235;48.688;9.708;2023-12-28T03:25:34;97786.00;;;21.60;40.09
84134;BME280;74235;48.688;9.708;2023-12-28T03:28:01;97775.19;;;21.60;40.41
84134;BME280;74235;48.688;9.708;2023-12-28T03:30:30;97784.13;;;21.60;39.40
84134;BME280;74235;48.688;9.708;2023-12-28T03:32:59;97791.41;;;21.60;39.00
84134;BME280;74235;48.688;9.708;2023-12-28T03:35:26;97786.00;;;21.60;39.78
84134;BME280;74235;48.688;9.708;2023-12-28T03:37:54;97779.81;;;21.59;40.02
84134;BME280;74235;48.688;9.708;2023-12-28T03:40:22;97779.81;;;21.59;40.70
84134;BME280;74235;48.688;9.708;2023-12-28T03:42:51;97769.56;;;21.56;38.95
84134;BME280;74235;48.688;9.708;2023-12-28T03:45:18;97795.19;;;21.59;40.45
84134;BME280;74235;48.688;9.708;2023-12-28T03:47:46;97788.19;;;21.58;39.11
84134;BME280;74235;48.688;9.708;2023-12-28T03:50:15;97788.97;;;21.58;38.96
84134;BME280;74235;48.688;9.708;2023-12-28T03:52:43;97783.56;;;21.58;39.20
84134;BME280;74235;48.688;9.708;2023-12-28T03:55:11;97781.97;;;21.57;40.68
84134;BME280;74235;48.688;9.708;2023-12-28T03:57:39;97793.31;;;21.59;39.58
84134;BME280;74235;48.688;9.708;2023-12-28T04:00:08;97795.19;;;21.59;40.71
84134;BME280;74235;48.688;9.708;2023-12-28T04:02:39;97800.59;;;21.59;40.43
84134;BME280;74235;48.688;9.708;2023-12-28T04:05:07;97801.44;;;21.59;40.13
84134;BME280;74235;48.688;9.708;2023-12-28T04:07:36;97803.31;;;21.59;40.20
84134;BME280;74235;48.688;9.708;2023-12-28T04:10:04;97801.44;;;21.59;39.92
84134;BME280;74235;48.688;9.708;2023-12-28T04:12:32;97799.78;;;21.58;40.47
84134;BME280;74235;48.688;9.708;2023-12-28T04:15:00;97800.59;;;21.59;40.44
84134;BME280;74235;48.688;9.708;2023-12-28T04:17:27;97804.41;;;21.58;40.18
84134;BME280;74235;48.688;9.708;2023-12-28T04:19:55;97795.47;;;21.57;40.25
84134;BME280;74235;48.688;9.708;2023-12-28T04:22:23;97791.19;;;21.56;39.40
84134;BME280;74235;48.688;9.708;2023-12-28T04:24:52;97786.56;;;21.57;38.91
84134;BME280;74235;48.688;9.708;2023-12-28T04:27:19;97780.38;;;21.56;39.98
84134;BME280;74235;48.688;9.708;2023-12-28T04:29:47;97773.34;;;21.55;40.25
84134;BME280;74235;48.688;9.708;2023-12-28T04:32:15;97770.94;;;21.54;39.53
84134;BME280;74235;48.688;9.708;2023-12-28T04:34:44;97757.44;;;21.49;39.15
84134;BME280;74235;48.688;9.708;2023-12-28T04:37:11;97766.13;;;21.46;38.36
84134;BME280;74235;48.688;9.708;2023-12-28T04:39:39;97758.59;;;21.43;38.38
84134;BME280;74235;48.688;9.708;2023-12-28T04:42:08;97768.03;;;21.45;37.40
84134;BME280;74235;48.688;9.708;2023-12-28T04:44:37;97763.41;;;21.46;38.79
84134;BME280;74235;48.688;9.708;2023-12-28T04:47:05;97765.84;;;21.47;38.48
84134;BME280;74235;48.688;9.708;2023-12-28T04:49:33;97755.84;;;21.48;37.03
84134;BME280;74235;48.688;9.708;2023-12-28T04:52:01;97757.44;;;21.49;38.24
84134;BME280;74235;48.688;9.708;2023-12-28T04:54:29;97762.34;;;21.47;37.21
84134;BME280;74235;48.688;9.708;2023-12-28T04:56:56;97763.72;;;21.44;37.55
84134;BME280;74235;48.688;9.708;2023-12-28T04:59:25;97764.78;;;21.43;37.24
84134;BME280;74235;48.688;9.708;2023-12-28T05:01:54;97760.19;;;21.44;37.79
84134;BME280;74235;48.688;9.708;2023-12-28T05:04:21;97757.22;;;21.45;37.04
84134;BME280;74235;48.688;9.708;2023-12-28T05:06:50;97761.81;;;21.45;37.07
84134;BME280;74235;48.688;9.708;2023-12-28T05:09:17;97756.41;;;21.45;37.35
84134;BME280;74235;48.688;9.708;2023-12-28T05:11:45;97749.91;;;21.46;36.76
84134;BME280;74235;48.688;9.708;2023-12-28T05:14:12;97749.91;;;21.46;36.61
84134;BME280;74235;48.688;9.708;2023-12-28T05:16:41;97763.41;;;21.46;37.64
84134;BME280;74235;48.688;9.708;2023-12-28T05:19:09;97765.84;;;21.47;38.36
84134;BME280;74235;48.688;9.708;2023-12-28T05:21:36;97758.81;;;21.46;36.94
84134;BME280;74235;48.688;9.708;2023-12-28T05:24:04;97744.22;;;21.47;38.66
84134;BME280;74235;48.688;9.708;2023-12-28T05:26:32;97758.81;;;21.46;36.82
84134;BME280;74235;48.688;9.708;2023-12-28T05:28:59;97750.44;;;21.48;38.06
84134;BME280;74235;48.688;9.708;2023-12-28T05:31:27;97754.25;;;21.47;38.77
84134;BME280;74235;48.688;9.708;2023-12-28T05:33:57;97778.56;;;21.47;37.10
84134;BME280;74235;48.688;9.708;2023-12-28T05:36:26;97768.53;;;21.47;36.84
84134;BME280;74235;48.688;9.708;2023-12-28T05:38:53;97783.69;;;21.48;37.76
84134;BME280;74235;48.688;9.708;2023-12-28T05:41:21;97795.28;;;21.49;38.88
84134;BME280;74235;48.688;9.708;2023-12-28T05:43:48;97788.28;;;21.48;38.44
84134;BME280;74235;48.688;9.708;2023-12-28T05:46:16;97777.47;;;21.48;38.43
84134;BME280;74235;48.688;9.708;2023-12-28T05:48:43;97774.75;;;21.48;37.13
84134;BME280;74235;48.688;9.708;2023-12-28T05:51:12;97773.94;;;21.47;38.89
84134;BME280;74235;48.688;9.708;2023-12-28T05:53:40;97782.03;;;21.47;37.22
84134;BME280;74235;48.688;9.708;2023-12-28T05:56:08;97776.91;;;21.46;38.06
84134;BME280;74235;48.688;9.708;2023-12-28T05:58:36;97782.03;;;21.47;37.70
84134;BME280;74235;48.688;9.708;2023-12-28T06:01:05;97796.38;;;21.48;37.38
84134;BME280;74235;48.688;9.708;2023-12-28T06:03:33;97789.09;;;21.48;37.99
84134;BME280;74235;48.688;9.708;2023-12-28T06:06:00;97788.28;;;21.48;38.26
84134;BME280;74235;48.688;9.708;2023-12-28T06:08:30;97789.38;;;21.47;38.50
84134;BME280;74235;48.688;9.708;2023-12-28T06:10:57;97793.69;;;21.48;38.73
84134;BME280;74235;48.688;9.708;2023-12-28T06:13:25;97786.09;;;21.50;37.36
84134;BME280;74235;48.688;9.708;2023-12-28T06:15:52;97788.28;;;21.48;38.50
84134;BME280;74235;48.688;9.708;2023-12-28T06:18:20;97796.38;;;21.48;38.84
84134;BME280;74235;48.688;9.708;2023-12-28T06:20:47;97796.38;;;21.48;37.11
84134;BME280;74235;48.688;9.708;2023-12-28T06:23:15;97806.91;;;21.49;38.84
84134;BME280;74235;48.688;9.708;2023-12-28T06:25:44;97801.50;;;21.49;38.31
84134;BME280;74235;48.688;9.708;2023-12-28T06:28:11;97801.50;;;21.49;38.35
84134;BME280;74235;48.688;9.708;2023-12-28T06:30:39;97807.72;;;21.50;37.59
84134;BME280;74235;48.688;9.708;2023-12-28T06:33:07;97808.00;;;21.48;38.56
84134;BME280;74235;48.688;9.708;2023-12-28T06:35:34;97806.09;;;21.49;38.34
84134;BME280;74235;48.688;9.708;2023-12-28T06:38:02;97800.69;;;21.49;38.55
84134;BME280;74235;48.688;9.708;2023-12-28T06:40:29;97799.91;;;21.48;37.79
84134;BME280;74235;48.688;9.708;2023-12-28T06:42:59;97802.59;;;21.48;37.65
84134;BME280;74235;48.688;9.708;2023-12-28T06:45:26;97806.09;;;21.49;37.34
84134;BME280;74235;48.688;9.708;2023-12-28T06:47:56;97807.19;;;21.48;37.35
84134;BME280;74235;48.688;9.708;2023-12-28T06:50:24;97809.88;;;21.48;38.56
84134;BME280;74235;48.688;9.708;2023-12-28T06:52:51;97812.59;;;21.48;38.25
84134;BME280;74235;48.688;9.708;2023-12-28T06:55:19;97820.69;;;21.48;38.66
84134;BME280;74235;48.688;9.708;2023-12-28T06:57:46;97823.41;;;21.48;37.47
84134;BME280;74235;48.688;9.708;2023-12-28T07:00:15;97828.81;;;21.48;38.59
84134;BME280;74235;48.688;9.708;2023-12-28T07:02:43;97827.72;;;21.49;37.28
84134;BME280;74235;48.688;9.708;2023-12-28T07:05:10;97823.41;;;21.48;37.47
84134;BME280;74235;48.688;9.708;2023-12-28T07:07:40;97823.41;;;21.48;38.87
84134;BME280;74235;48.688;9.708;2023-12-28T07:10:08;97827.72;;;21.49;37.50
84134;BME280;74235;48.688;9.708;2023-12-28T07:12:35;97833.13;;;21.49;37.99
84134;BME280;74235;48.688;9.708;2023-12-28T07:15:03;97833.13;;;21.49;37.17
84134;BME280;74235;48.688;9.708;2023-12-28T07:17:32;97832.31;;;21.48;38.35
84134;BME280;74235;48.688;9.708;2023-12-28T07:20:00;97829.63;;;21.48;38.18
84134;BME280;74235;48.688;9.708;2023-12-28T07:22:28;97828.81;;;21.48;37.43
84134;BME280;74235;48.688;9.708;2023-12-28T07:24:55;97830.41;;;21.49;37.92
84134;BME280;74235;48.688;9.708;2023-12-28T07:27:23;97828.81;;;21.48;37.57
84134;BME280;74235;48.688;9.708;2023-12-28T07:29:50;97816.13;;;21.48;38.95
84134;BME280;74235;48.688;9.708;2023-12-28T07:32:18;97825.28;;;21.47;37.72
84134;BME280;74235;48.688;9.708;2023-12-28T07:34:48;97826.09;;;21.48;37.82
84134;BME280;74235;48.688;9.708;2023-12-28T07:37:16;97823.41;;;21.48;37.18
84134;BME280;74235;48.688;9.708;2023-12-28T07:39:43;97820.69;;;21.48;37.42
84134;BME280;74235;48.688;9.708;2023-12-28T07:42:11;97826.09;;;21.48;38.60
84134;BME280;74235;48.688;9.708;2023-12-28T07:44:39;97821.78;;;21.47;38.48
84134;BME280;74235;48.688;9.708;2023-12-28T07:47:06;97825.56;;;21.46;38.54
84134;BME280;74235;48.688;9.708;2023-12-28T07:49:36;97829.09;;;21.46;37.44
84134;BME280;74235;48.688;9.708;2023-12-28T07:52:06;97832.59;;;21.47;38.13
84134;BME280;74235;48.688;9.708;2023-12-28T07:54:33;97821.25;;;21.45;38.62
84134;BME280;74235;48.688;9.708;2023-12-28T07:57:01;97834.22;;;21.48;37.52
84134;BME280;74235;48.688;9.708;2023-12-28T07:59:28;97833.38;;;21.47;38.39
84134;BME280;74235;48.688;9.708;2023-12-28T08:01:56;97824.50;;;21.47;39.10
84134;BME280;74235;48.688;9.708;2023-12-28T08:04:23;97839.91;;;21.46;37.69
84134;BME280;74235;48.688;9.708;2023-12-28T08:06:51;97845.28;;;21.46;39.47
84134;BME280;74235;48.688;9.708;2023-12-28T08:09:20;97847.72;;;21.48;39.33
84134;BME280;74235;48.688;9.708;2023-12-28T08:11:47;97848.81;;;21.47;37.59
84134;BME280;74235;48.688;9.708;2023-12-28T08:14:15;97845.28;;;21.46;37.99
84134;BME280;74235;48.688;9.708;2023-12-28T08:16:42;97858.53;;;21.48;39.09
84134;BME280;74235;48.688;9.708;2023-12-28T08:19:11;97846.91;;;21.47;38.44
84134;BME280;74235;48.688;9.708;2023-12-28T08:21:38;97858.53;;;21.48;38.90
84134;BME280;74235;48.688;9.708;2023-12-28T08:24:06;97854.72;;;21.49;37.75
84134;BME280;74235;48.688;9.708;2023-12-28T08:26:35;97847.69;;;21.53;38.86
84134;BME280;74235;48.688;9.708;2023-12-28T08:29:02;97853.06;;;21.58;39.09
84134;BME280;74235;48.688;9.708;2023-12-28T08:31:30;97851.41;;;21.62;38.53
84134;BME280;74235;48.688;9.708;2023-12-28T08:33:58;97853.25;;;21.66;38.74
84134;BME280;74235;48.688;9.708;2023-12-28T08:36:25;97860.28;;;21.67;38.22
84134;BME280;74235;48.688;9.708;2023-12-28T08:38:53;97862.72;;;21.69;39.70
84134;BME280;74235;48.688;9.708;2023-12-28T08:41:20;97866.50;;;21.73;38.86
84134;BME280;74235;48.688;9.708;2023-12-28T08:43:50;97860.25;;;21.72;39.01
84134;BME280;74235;48.688;9.708;2023-12-28T08:46:18;97863.50;;;21.74;38.65
84134;BME280;74235;48.688;9.708;2023-12-28T08:48:46;97862.91;;;21.77;38.77
84134;BME280;74235;48.688;9.708;2023-12-28T08:51:14;97856.72;;;21.77;39.17
84134;BME280;74235;48.688;9.708;2023-12-28T08:53:42;97856.72;;;21.77;39.63
84134;BME280;74235;48.688;9.708;2023-12-28T08:56:14;97862.13;;;21.77;38.48
84134;BME280;74235;48.688;9.708;2023-12-28T08:58:43;97862.69;;;21.74;38.59
84134;BME280;74235;48.688;9.708;2023-12-28T09:01:16;97861.63;;;21.70;38.33
84134;BME280;74235;48.688;9.708;2023-12-28T09:03:44;97872.16;;;21.66;38.87
84134;BME280;74235;48.688;9.708;2023-12-28T09:06:12;97878.94;;;21.64;39.94
84134;BME280;74235;48.688;9.708;2023-12-28T09:08:41;97882.75;;;21.63;40.34
84134;BME280;74235;48.688;9.708;2023-12-28T09:11:09;97878.72;;;21.60;38.32
84134;BME280;74235;48.688;9.708;2023-12-28T09:13:37;97875.97;;;21.65;38.58
84134;BME280;74235;48.688;9.708;2023-12-28T09:16:05;97879.72;;;21.74;39.58
84134;BME280;74235;48.688;9.708;2023-12-28T09:18:36;97878.34;;;21.77;39.79
84134;BME280;74235;48.688;9.708;2023-12-28T09:21:08;97882.66;;;21.78;39.27
84134;BME280;74235;48.688;9.708;2023-12-28T09:23:36;97885.38;;;21.78;38.79
84134;BME280;74235;48.688;9.708;2023-12-28T09:26:04;97880.00;;;21.73;39.60
84134;BME280;74235;48.688;9.708;2023-12-28T09:28:33;97882.41;;;21.69;39.21
84134;BME280;74235;48.688;9.708;2023-12-28T09:31:01;97870.56;;;21.65;38.59
84134;BME280;74235;48.688;9.708;2023-12-28T09:33:29;97868.13;;;21.64;39.71
84134;BME280;74235;48.688;9.708;2023-12-28T09:35:58;97855.72;;;21.63;38.94
84134;BME280;74235;48.688;9.708;2023-12-28T09:38:27;97855.22;;;21.61;38.28
84134;BME280;74235;48.688;9.708;2023-12-28T09:40:58;97868.72;;;21.61;38.15
84134;BME280;74235;48.688;9.708;2023-12-28T09:43:30;97870.88;;;21.59;38.10
84134;BME280;74235;48.688;9.708;2023-12-28T09:46:06;97870.88;;;21.59;39.44
84134;BME280;74235;48.688;9.708;2023-12-28T09:48:36;97870.88;;;21.59;38.35
84134;BME280;74235;48.688;9.708;2023-12-28T09:51:07;97858.47;;;21.58;38.17
84134;BME280;74235;48.688;9.708;2023-12-28T09:53:40;97858.47;;;21.58;37.94
84134;BME280;74235;48.688;9.708;2023-12-28T09:56:07;97854.44;;;21.55;38.23
84134;BME280;74235;48.688;9.708;2023-12-28T09:58:35;97862.25;;;21.57;39.00
84134;BME280;74235;48.688;9.708;2023-12-28T10:01:05;97858.75;;;21.56;38.44
84134;BME280;74235;48.688;9.708;2023-12-28T10:03:33;97855.22;;;21.56;39.51
84134;BME280;74235;48.688;9.708;2023-12-28T10:06:01;97866.03;;;21.56;38.29
84134;BME280;74235;48.688;9.708;2023-12-28T10:08:30;97859.84;;;21.55;39.24
84134;BME280;74235;48.688;9.708;2023-12-28T10:10:59;97859.03;;;21.55;38.92
84134;BME280;74235;48.688;9.708;2023-12-28T10:13:28;97854.72;;;21.54;38.74
84134;BME280;74235;48.688;9.708;2023-12-28T10:15:56;97851.19;;;21.53;38.85
84134;BME280;74235;48.688;9.708;2023-12-28T10:18:24;97857.41;;;21.54;38.01
84134;BME280;74235;48.688;9.708;2023-12-28T10:20:52;97855.28;;;21.51;38.74
84134;BME280;74235;48.688;9.708;2023-12-28T10:23:20;97861.19;;;21.53;38.03
84134;BME280;74235;48.688;9.708;2023-12-28T10:25:50;97859.59;;;21.52;39.12
84134;BME280;74235;48.688;9.708;2023-12-28T10:28:20;97865.81;;;21.52;37.92
84134;BME280;74235;48.688;9.708;2023-12-28T10:30:48;97865.00;;;21.52;38.97
84134;BME280;74235;48.688;9.708;2023-12-28T10:33:16;97869.28;;;21.53;38.31
84134;BME280;74235;48.688;9.708;2023-12-28T10:35:49;97859.06;;;21.50;38.44
84134;BME280;74235;48.688;9.708;2023-12-28T10:38:18;97865.00;;;21.52;38.01
84134;BME280;74235;48.688;9.708;2023-12-28T10:40:47;97860.13;;;21.49;38.41
84134;BME280;74235;48.688;9.708;2023-12-28T10:43:19;97870.41;;;21.52;39.24
84134;BME280;74235;48.688;9.708;2023-12-28T10:45:51;97868.78;;;21.51;38.20
84134;BME280;74235;48.688;9.708;2023-12-28T10:48:23;97869.56;;;21.51;38.97
84134;BME280;74235;48.688;9.708;2023-12-28T10:50:52;97863.38;;;21.51;38.71
84134;BME280;74235;48.688;9.708;2023-12-28T10:53:32;97850.97;;;21.50;39.33
84134;BME280;74235;48.688;9.708;2023-12-28T10:56:19;97845.56;;;21.50;38.66
84134;BME280;74235;48.688;9.708;2023-12-28T10:58:50;97849.88;;;21.51;39.54
84134;BME280;74235;48.688;9.708;2023-12-28T11:01:24;97841.75;;;21.51;39.28
84134;BME280;74235;48.688;9.708;2023-12-28T11:04:00;97834.75;;;21.50;38.69
84134;BME280;74235;48.688;9.708;2023-12-28T11:06:32;97839.06;;;21.51;38.87
84134;BME280;74235;48.688;9.708;2023-12-28T11:09:00;97838.25;;;21.50;37.83
84134;BME280;74235;48.688;9.708;2023-12-28T11:11:29;97840.16;;;21.50;39.63
84134;BME280;74235;48.688;9.708;2023-12-28T11:13:59;97844.47;;;21.51;38.49
84134;BME280;74235;48.688;9.708;2023-12-28T11:16:28;97841.75;;;21.51;37.99
84134;BME280;74235;48.688;9.708;2023-12-28T11:18:57;97835.53;;;21.50;38.10
84134;BME280;74235;48.688;9.708;2023-12-28T11:21:25;97839.84;;;21.51;39.24
84134;BME280;74235;48.688;9.708;2023-12-28T11:23:54;97830.94;;;21.51;38.96
84134;BME280;74235;48.688;9.708;2023-12-28T11:26:22;97824.72;;;21.50;38.48
84134;BME280;74235;48.688;9.708;2023-12-28T11:28:49;97823.13;;;21.49;38.58
84134;BME280;74235;48.688;9.708;2023-12-28T11:31:18;97826.91;;;21.48;38.53
84134;BME280;74235;48.688;9.708;2023-12-28T11:33:47;97823.94;;;21.50;39.37
84134;BME280;74235;48.688;9.708;2023-12-28T11:36:22;97820.41;;;21.49;37.93
84134;BME280;74235;48.688;9.708;2023-12-28T11:38:53;97821.25;;;21.50;37.99
84134;BME280;74235;48.688;9.708;2023-12-28T11:41:21;97815.84;;;21.50;39.21
84134;BME280;74235;48.688;9.708;2023-12-28T11:43:52;97806.09;;;21.49;37.66
84134;BME280;74235;48.688;9.708;2023-12-28T11:46:22;97807.72;;;21.50;39.48
84134;BME280;74235;48.688;9.708;2023-12-28T11:48:50;97812.03;;;21.51;38.37
84134;BME280;74235;48.688;9.708;2023-12-28T11:51:17;97809.34;;;21.51;38.04
84134;BME280;74235;48.688;9.708;2023-12-28T11:53:45;97798.53;;;21.51;39.52
84134;BME280;74235;48.688;9.708;2023-12-28T11:56:15;97796.66;;;21.46;39.30
84134;BME280;74235;48.688;9.708;2023-12-28T11:58:43;97802.31;;;21.50;38.71
84134;BME280;74235;48.688;9.708;2023-12-28T12:01:13;97811.22;;;21.50;38.74
84134;BME280;74235;48.688;9.708;2023-12-28T12:03:42;97801.22;;;21.51;38.86
84134;BME280;74235;48.688;9.708;2023-12-28T12:06:10;97801.22;;;21.51;38.50
84134;BME280;74235;48.688;9.708;2023-12-28T12:08:37;97799.63;;;21.50;38.50
84134;BME280;74235;48.688;9.708;2023-12-28T12:11:06;97796.91;;;21.50;38.79
84134;BME280;74235;48.688;9.708;2023-12-28T12:13:34;97789.59;;;21.50;38.36
84134;BME280;74235;48.688;9.708;2023-12-28T12:16:03;97790.41;;;21.51;37.81
84134;BME280;74235;48.688;9.708;2023-12-28T12:18:34;97788.81;;;21.50;38.25
84134;BME280;74235;48.688;9.708;2023-12-28T12:21:04;97788.81;;;21.50;39.70
84134;BME280;74235;48.688;9.708;2023-12-28T12:23:33;97786.81;;;21.60;38.47
84134;BME280;74235;48.688;9.708;2023-12-28T12:26:04;97774.78;;;22.28;38.31
84134;BME280;74235;48.688;9.708;2023-12-28T12:28:32;97777.22;;;22.72;37.14
84134;BME280;74235;48.688;9.708;2023-12-28T12:31:00;97762.75;;;23.00;36.93
84134;BME280;74235;48.688;9.708;2023-12-28T12:33:32;97758.41;;;23.17;36.71
84134;BME280;74235;48.688;9.708;2023-12-28T12:36:06;97759.13;;;23.28;35.93
84134;BME280;74235;48.688;9.708;2023-12-28T12:38:33;97758.69;;;23.21;36.97
84134;BME280;74235;48.688;9.708;2023-12-28T12:41:01;97767.06;;;23.19;37.64
84134;BME280;74235;48.688;9.708;2023-12-28T12:43:29;97765.75;;;23.17;37.40
84134;BME280;74235;48.688;9.708;2023-12-28T12:45:57;97766.41;;;23.09;37.20
84134;BME280;74235;48.688;9.708;2023-12-28T12:48:24;97757.28;;;23.55;37.05
84134;BME280;74235;48.688;9.708;2023-12-28T12:50:52;97755.25;;;23.80;37.02
84134;BME280;74235;48.688;9.708;2023-12-28T12:53:21;97751.16;;;23.96;36.48
84134;BME280;74235;48.688;9.708;2023-12-28T12:55:54;97749.69;;;24.03;36.38
84134;BME280;74235;48.688;9.708;2023-12-28T12:58:21;97750.75;;;24.02;36.04
84134;BME280;74235;48.688;9.708;2023-12-28T13:00:50;97754.00;;;24.04;35.82
84134;BME280;74235;48.688;9.708;2023-12-28T13:03:19;97745.84;;;24.04;36.38
84134;BME280;74235;48.688;9.708;2023-12-28T13:05:47;97733.59;;;23.93;36.39
84134;BME280;74235;48.688;9.708;2023-12-28T13:08:15;97742.63;;;24.02;35.87